sensor_id;sensor_type;location;lat;lon;timestamp;pressure;altitude;pressure_sealevel;temperature;humidity
71774;BME280;59607;52.130;5.430;2023-02-13T00:02:21;103910.94;;;7.75;96.29
71774;BME280;59607;52.130;5.430;2023-02-13T00:04:50;103907.41;;;7.76;95.74
71774;BME280;59607;52.130;5.430;2023-02-13T00:07:23;103911.00;;;7.74;95.27
71774;BME280;59607;52.130;5.430;2023-02-13T00:09:50;103905.06;;;7.70;95.62
71774;BME280;59607;52.130;5.430;2023-02-13T00:12:16;103905.00;;;7.72;95.75
71774;BME280;59607;52.130;5.430;2023-02-13T00:14:43;103904.16;;;7.71;96.06
71774;BME280;59607;52.130;5.430;2023-02-13T00:17:09;103903.16;;;7.74;96.09
71774;BME280;59607;52.130;5.430;2023-02-13T00:19:36;103900.63;;;7.72;95.95
71774;BME280;59607;52.130;5.430;2023-02-13T00:22:02;103903.09;;;7.75;96.22
71774;BME280;59607;52.130;5.430;2023-02-13T00:24:28;103902.41;;;7.72;96.26
71774;BME280;59607;52.130;5.430;2023-02-13T00:26:55;103892.91;;;7.69;96.09
71774;BME280;59607;52.130;5.430;2023-02-13T00:29:21;103898.06;;;7.71;96.03
71774;BME280;59607;52.130;5.430;2023-02-13T00:31:48;103895.53;;;7.69;96.28
71774;BME280;59607;52.130;5.430;2023-02-13T00:34:15;103894.56;;;7.72;96.03
71774;BME280;59607;52.130;5.430;2023-02-13T00:36:41;103886.84;;;7.69;96.26
71774;BME280;59607;52.130;5.430;2023-02-13T00:39:18;103883.47;;;7.67;96.64
71774;BME280;59607;52.130;5.430;2023-02-13T00:41:49;103890.16;;;7.72;96.76
71774;BME280;59607;52.130;5.430;2023-02-13T00:44:15;103889.41;;;7.70;96.45
71774;BME280;59607;52.130;5.430;2023-02-13T00:46:42;103884.25;;;7.69;96.22
71774;BME280;59607;52.130;5.430;2023-02-13T00:49:12;103875.63;;;7.67;96.56
71774;BME280;59607;52.130;5.430;2023-02-13T00:51:38;103878.38;;;7.63;96.62
71774;BME280;59607;52.130;5.430;2023-02-13T00:54:08;103882.81;;;7.61;96.45
71774;BME280;59607;52.130;5.430;2023-02-13T00:56:45;103878.50;;;7.60;96.65
71774;BME280;59607;52.130;5.430;2023-02-13T00:59:13;103885.41;;;7.61;97.17
71774;BME280;59607;52.130;5.430;2023-02-13T01:01:44;103880.25;;;7.60;96.84
71774;BME280;59607;52.130;5.430;2023-02-13T01:04:10;103881.19;;;7.59;97.10
71774;BME280;59607;52.130;5.430;2023-02-13T01:06:37;103878.50;;;7.60;97.13
71774;BME280;59607;52.130;5.430;2023-02-13T01:09:03;103879.16;;;7.65;97.17
71774;BME280;59607;52.130;5.430;2023-02-13T01:11:30;103884.31;;;7.67;97.13
71774;BME280;59607;52.130;5.430;2023-02-13T01:13:56;103887.16;;;7.61;96.93
71774;BME280;59607;52.130;5.430;2023-02-13T01:16:23;103885.47;;;7.60;97.05
71774;BME280;59607;52.130;5.430;2023-02-13T01:18:50;103881.19;;;7.59;97.18
71774;BME280;59607;52.130;5.430;2023-02-13T01:21:19;103881.88;;;7.62;96.80
71774;BME280;59607;52.130;5.430;2023-02-13T01:23:49;103880.31;;;7.58;97.53
71774;BME280;59607;52.130;5.430;2023-02-13T01:26:21;103878.56;;;7.59;97.76
71774;BME280;59607;52.130;5.430;2023-02-13T01:28:56;103878.56;;;7.59;97.88
71774;BME280;59607;52.130;5.430;2023-02-13T01:31:23;103877.66;;;7.60;97.90
71774;BME280;59607;52.130;5.430;2023-02-13T01:33:58;103879.47;;;7.58;97.97
71774;BME280;59607;52.130;5.430;2023-02-13T01:36:25;103875.75;;;7.63;97.48
71774;BME280;59607;52.130;5.430;2023-02-13T01:38:54;103873.28;;;7.60;97.68
71774;BME280;59607;52.130;5.430;2023-02-13T01:41:25;103872.50;;;7.58;98.19
71774;BME280;59607;52.130;5.430;2023-02-13T01:43:59;103879.47;;;7.58;98.11
71774;BME280;59607;52.130;5.430;2023-02-13T01:46:30;103875.75;;;7.63;98.09
71774;BME280;59607;52.130;5.430;2023-02-13T01:49:10;103871.50;;;7.61;97.93
71774;BME280;59607;52.130;5.430;2023-02-13T01:51:42;103869.88;;;7.58;97.69
71774;BME280;59607;52.130;5.430;2023-02-13T01:54:12;103861.31;;;7.55;98.23
71774;BME280;59607;52.130;5.430;2023-02-13T01:56:54;103868.47;;;7.51;98.41
71774;BME280;59607;52.130;5.430;2023-02-13T01:59:35;103866.75;;;7.50;98.89
71774;BME280;59607;52.130;5.430;2023-02-13T02:02:03;103859.84;;;7.49;98.77
71774;BME280;59607;52.130;5.430;2023-02-13T02:04:47;103861.66;;;7.47;98.58
71774;BME280;59607;52.130;5.430;2023-02-13T02:07:26;103857.44;;;7.44;98.97
71774;BME280;59607;52.130;5.430;2023-02-13T02:10:04;103861.78;;;7.44;99.11
71774;BME280;59607;52.130;5.430;2023-02-13T02:15:29;103854.81;;;7.44;98.99
71774;BME280;59607;52.130;5.430;2023-02-13T02:18:00;103853.03;;;7.45;99.20
71774;BME280;59607;52.130;5.430;2023-02-13T02:26:53;103858.13;;;7.48;98.65
71774;BME280;59607;52.130;5.430;2023-02-13T02:41:24;103852.91;;;7.48;99.25
71774;BME280;59607;52.130;5.430;2023-02-13T02:56:17;103848.47;;;7.50;99.43
71774;BME280;59607;52.130;5.430;2023-02-13T02:59:17;103846.00;;;7.47;99.15
71774;BME280;59607;52.130;5.430;2023-02-13T03:02:05;103839.97;;;7.45;99.34
71774;BME280;59607;52.130;5.430;2023-02-13T03:04:55;103846.97;;;7.44;99.78
71774;BME280;59607;52.130;5.430;2023-02-13T03:07:45;103841.28;;;7.55;99.53
71774;BME280;59607;52.130;5.430;2023-02-13T03:10:26;103839.38;;;7.59;98.84
71774;BME280;59607;52.130;5.430;2023-02-13T03:13:33;103849.25;;;7.52;99.10
71774;BME280;59607;52.130;5.430;2023-02-13T03:16:03;103843.25;;;7.50;99.58
71774;BME280;59607;52.130;5.430;2023-02-13T03:19:00;103850.88;;;7.55;99.05
71774;BME280;59607;52.130;5.430;2023-02-13T03:22:04;103847.38;;;7.56;99.02
71774;BME280;59607;52.130;5.430;2023-02-13T03:30:26;103848.59;;;7.47;99.81
71774;BME280;59607;52.130;5.430;2023-02-13T03:39:22;103849.06;;;7.57;99.62
71774;BME280;59607;52.130;5.430;2023-02-13T03:45:17;103849.78;;;7.60;99.32
71774;BME280;59607;52.130;5.430;2023-02-13T03:48:06;103849.13;;;7.55;99.37
71774;BME280;59607;52.130;5.430;2023-02-13T03:50:58;103848.25;;;7.55;99.65
71774;BME280;59607;52.130;5.430;2023-02-13T03:53:30;103845.31;;;7.62;99.46
71774;BME280;59607;52.130;5.430;2023-02-13T03:56:01;103840.88;;;7.64;99.20
71774;BME280;59607;52.130;5.430;2023-02-13T03:58:53;103848.84;;;7.61;99.27
71774;BME280;59607;52.130;5.430;2023-02-13T04:01:45;103847.28;;;7.57;99.27
71774;BME280;59607;52.130;5.430;2023-02-13T04:04:20;103846.44;;;7.57;99.21
71774;BME280;59607;52.130;5.430;2023-02-13T04:06:58;103835.91;;;7.58;99.62
71774;BME280;59607;52.130;5.430;2023-02-13T04:09:35;103839.31;;;7.60;99.27
71774;BME280;59607;52.130;5.430;2023-02-13T04:12:06;103845.44;;;7.59;99.35
71774;BME280;59607;52.130;5.430;2023-02-13T04:14:47;103838.66;;;7.55;99.55
71774;BME280;59607;52.130;5.430;2023-02-13T04:17:33;103844.75;;;7.56;99.63
71774;BME280;59607;52.130;5.430;2023-02-13T04:20:02;103838.59;;;7.57;99.87
71774;BME280;59607;52.130;5.430;2023-02-13T04:22:41;103842.69;;;7.62;99.15
71774;BME280;59607;52.130;5.430;2023-02-13T04:25:12;103839.47;;;7.57;99.58
71774;BME280;59607;52.130;5.430;2023-02-13T04:27:41;103846.66;;;7.52;99.74
71774;BME280;59607;52.130;5.430;2023-02-13T04:30:09;103837.16;;;7.49;99.61
71774;BME280;59607;52.130;5.430;2023-02-13T04:32:41;103845.06;;;7.48;99.86
71774;BME280;59607;52.130;5.430;2023-02-13T04:35:08;103836.47;;;7.46;100.00
71774;BME280;59607;52.130;5.430;2023-02-13T04:37:53;103841.69;;;7.46;100.00
71774;BME280;59607;52.130;5.430;2023-02-13T04:40:20;103840.75;;;7.47;100.00
71774;BME280;59607;52.130;5.430;2023-02-13T04:42:49;103843.16;;;7.51;100.00
71774;BME280;59607;52.130;5.430;2023-02-13T04:45:20;103836.34;;;7.49;100.00
71774;BME280;59607;52.130;5.430;2023-02-13T04:47:51;103834.69;;;7.46;100.00
71774;BME280;59607;52.130;5.430;2023-02-13T04:50:22;103836.25;;;7.50;100.00
71774;BME280;59607;52.130;5.430;2023-02-13T04:52:53;103839.53;;;7.56;100.00
71774;BME280;59607;52.130;5.430;2023-02-13T04:55:22;103828.28;;;7.53;100.00
71774;BME280;59607;52.130;5.430;2023-02-13T04:57:55;103829.22;;;7.52;100.00
71774;BME280;59607;52.130;5.430;2023-02-13T05:00:24;103831.75;;;7.54;100.00
71774;BME280;59607;52.130;5.430;2023-02-13T05:02:53;103830.13;;;7.51;100.00
71774;BME280;59607;52.130;5.430;2023-02-13T05:05:23;103822.34;;;7.50;100.00
71774;BME280;59607;52.130;5.430;2023-02-13T05:07:49;103817.97;;;7.50;100.00
71774;BME280;59607;52.130;5.430;2023-02-13T05:10:16;103818.94;;;7.48;100.00
71774;BME280;59607;52.130;5.430;2023-02-13T05:12:47;103808.44;;;7.49;100.00
71774;BME280;59607;52.130;5.430;2023-02-13T05:15:14;103818.94;;;7.48;100.00
71774;BME280;59607;52.130;5.430;2023-02-13T05:17:54;103812.19;;;7.44;100.00
71774;BME280;59607;52.130;5.430;2023-02-13T05:20:26;103817.47;;;7.42;100.00
71774;BME280;59607;52.130;5.430;2023-02-13T05:22:53;103814.00;;;7.41;100.00
71774;BME280;59607;52.130;5.430;2023-02-13T05:25:40;103806.16;;;7.41;100.00
71774;BME280;59607;52.130;5.430;2023-02-13T05:28:10;103805.28;;;7.43;100.00
71774;BME280;59607;52.130;5.430;2023-02-13T05:30:57;103812.03;;;7.47;100.00
71774;BME280;59607;52.130;5.430;2023-02-13T05:33:33;103807.81;;;7.44;100.00
71774;BME280;59607;52.130;5.430;2023-02-13T05:36:00;103806.03;;;7.45;100.00
71774;BME280;59607;52.130;5.430;2023-02-13T05:38:26;103811.25;;;7.45;100.00
71774;BME280;59607;52.130;5.430;2023-02-13T05:40:52;103807.75;;;7.46;100.00
71774;BME280;59607;52.130;5.430;2023-02-13T05:43:19;103804.41;;;7.42;100.00
71774;BME280;59607;52.130;5.430;2023-02-13T05:45:45;103807.16;;;7.39;100.00
71774;BME280;59607;52.130;5.430;2023-02-13T05:48:24;103814.00;;;7.41;100.00
71774;BME280;59607;52.130;5.430;2023-02-13T05:50:59;103817.41;;;7.44;100.00
71774;BME280;59607;52.130;5.430;2023-02-13T05:53:28;103815.56;;;7.46;100.00
71774;BME280;59607;52.130;5.430;2023-02-13T05:55:55;103806.88;;;7.45;100.00
71774;BME280;59607;52.130;5.430;2023-02-13T05:58:28;103813.78;;;7.46;100.00
71774;BME280;59607;52.130;5.430;2023-02-13T06:00:56;103813.84;;;7.45;100.00
71774;BME280;59607;52.130;5.430;2023-02-13T06:03:33;103811.31;;;7.43;100.00
71774;BME280;59607;52.130;5.430;2023-02-13T06:06:03;103808.72;;;7.43;100.00
71774;BME280;59607;52.130;5.430;2023-02-13T06:08:43;103812.25;;;7.42;100.00
71774;BME280;59607;52.130;5.430;2023-02-13T06:11:14;103807.22;;;7.37;100.00
71774;BME280;59607;52.130;5.430;2023-02-13T06:13:41;103812.66;;;7.33;100.00
71774;BME280;59607;52.130;5.430;2023-02-13T06:16:11;103806.50;;;7.34;100.00
71774;BME280;59607;52.130;5.430;2023-02-13T06:18:38;103813.41;;;7.35;100.00
71774;BME280;59607;52.130;5.430;2023-02-13T06:21:05;103807.38;;;7.34;100.00
71774;BME280;59607;52.130;5.430;2023-02-13T06:23:42;103810.75;;;7.36;100.00
71774;BME280;59607;52.130;5.430;2023-02-13T06:26:09;103811.66;;;7.35;100.00
71774;BME280;59607;52.130;5.430;2023-02-13T06:28:45;103811.66;;;7.35;100.00
71774;BME280;59607;52.130;5.430;2023-02-13T06:31:12;103813.94;;;7.43;100.00
71774;BME280;59607;52.130;5.430;2023-02-13T06:33:43;103812.09;;;7.45;100.00
71774;BME280;59607;52.130;5.430;2023-02-13T06:36:11;103816.47;;;7.45;100.00
71774;BME280;59607;52.130;5.430;2023-02-13T06:38:43;103819.09;;;7.45;100.00
71774;BME280;59607;52.130;5.430;2023-02-13T06:41:10;103819.81;;;7.48;100.00
71774;BME280;59607;52.130;5.430;2023-02-13T06:43:36;103817.34;;;7.45;100.00
71774;BME280;59607;52.130;5.430;2023-02-13T06:46:06;103824.88;;;7.51;100.00
71774;BME280;59607;52.130;5.430;2023-02-13T06:48:34;103816.16;;;7.52;100.00
71774;BME280;59607;52.130;5.430;2023-02-13T06:51:01;103817.19;;;7.48;100.00
71774;BME280;59607;52.130;5.430;2023-02-13T06:53:29;103823.34;;;7.47;100.00
71774;BME280;59607;52.130;5.430;2023-02-13T06:56:03;103817.06;;;7.51;100.00
71774;BME280;59607;52.130;5.430;2023-02-13T06:58:40;103823.66;;;7.60;100.00
71774;BME280;59607;52.130;5.430;2023-02-13T07:01:06;103820.97;;;7.62;100.00
71774;BME280;59607;52.130;5.430;2023-02-13T07:03:33;103828.94;;;7.59;100.00
71774;BME280;59607;52.130;5.430;2023-02-13T07:05:59;103826.47;;;7.56;100.00
71774;BME280;59607;52.130;5.430;2023-02-13T07:08:28;103834.44;;;7.52;100.00
71774;BME280;59607;52.130;5.430;2023-02-13T07:10:55;103834.56;;;7.49;100.00
71774;BME280;59607;52.130;5.430;2023-02-13T07:13:28;103831.94;;;7.49;100.00
71774;BME280;59607;52.130;5.430;2023-02-13T07:16:00;103834.50;;;7.51;100.00
71774;BME280;59607;52.130;5.430;2023-02-13T07:18:27;103838.03;;;7.50;100.00
71774;BME280;59607;52.130;5.430;2023-02-13T07:20:56;103848.47;;;7.50;100.00
71774;BME280;59607;52.130;5.430;2023-02-13T07:23:33;103844.81;;;7.54;100.00
71774;BME280;59607;52.130;5.430;2023-02-13T07:26:00;103836.78;;;7.59;100.00
71774;BME280;59607;52.130;5.430;2023-02-13T07:28:30;103830.69;;;7.58;100.00
71774;BME280;59607;52.130;5.430;2023-02-13T07:31:02;103836.00;;;7.57;100.00
71774;BME280;59607;52.130;5.430;2023-02-13T07:33:38;103830.75;;;7.57;100.00
71774;BME280;59607;52.130;5.430;2023-02-13T07:36:04;103830.91;;;7.53;100.00
71774;BME280;59607;52.130;5.430;2023-02-13T07:38:36;103829.22;;;7.52;100.00
71774;BME280;59607;52.130;5.430;2023-02-13T07:41:03;103828.22;;;7.55;100.00
71774;BME280;59607;52.130;5.430;2023-02-13T07:43:30;103830.84;;;7.55;100.00
71774;BME280;59607;52.130;5.430;2023-02-13T07:45:58;103835.91;;;7.58;100.00
71774;BME280;59607;52.130;5.430;2023-02-13T07:48:31;103827.94;;;7.61;100.00
71774;BME280;59607;52.130;5.430;2023-02-13T07:51:04;103832.16;;;7.64;100.00
71774;BME280;59607;52.130;5.430;2023-02-13T07:53:33;103840.72;;;7.68;100.00
71774;BME280;59607;52.130;5.430;2023-02-13T07:56:07;103842.44;;;7.69;100.00
71774;BME280;59607;52.130;5.430;2023-02-13T07:58:38;103845.81;;;7.71;100.00
71774;BME280;59607;52.130;5.430;2023-02-13T08:01:09;103849.94;;;7.76;100.00
71774;BME280;59607;52.130;5.430;2023-02-13T08:03:40;103848.03;;;7.80;100.00
71774;BME280;59607;52.130;5.430;2023-02-13T08:06:10;103856.84;;;7.77;100.00
71774;BME280;59607;52.130;5.430;2023-02-13T08:08:37;103860.25;;;7.80;100.00
71774;BME280;59607;52.130;5.430;2023-02-13T08:11:31;103857.28;;;7.87;100.00
71774;BME280;59607;52.130;5.430;2023-02-13T08:14:23;103858.00;;;7.91;100.00
71774;BME280;59607;52.130;5.430;2023-02-13T08:16:53;103863.22;;;7.91;100.00
71774;BME280;59607;52.130;5.430;2023-02-13T08:19:25;103867.31;;;7.97;100.00
71774;BME280;59607;52.130;5.430;2023-02-13T08:21:51;103869.38;;;8.09;100.00
71774;BME280;59607;52.130;5.430;2023-02-13T08:24:21;103866.56;;;8.14;100.00
71774;BME280;59607;52.130;5.430;2023-02-13T08:26:47;103869.84;;;8.18;100.00
71774;BME280;59607;52.130;5.430;2023-02-13T08:29:14;103864.56;;;8.19;100.00
71774;BME280;59607;52.130;5.430;2023-02-13T08:31:49;103861.81;;;8.22;100.00
71774;BME280;59607;52.130;5.430;2023-02-13T08:34:16;103862.06;;;8.35;100.00
71774;BME280;59607;52.130;5.430;2023-02-13T08:36:46;103862.84;;;8.37;100.00
71774;BME280;59607;52.130;5.430;2023-02-13T08:39:13;103868.00;;;8.39;100.00
71774;BME280;59607;52.130;5.430;2023-02-13T08:41:40;103870.25;;;8.47;100.00
71774;BME280;59607;52.130;5.430;2023-02-13T08:44:09;103863.78;;;8.56;100.00
71774;BME280;59607;52.130;5.430;2023-02-13T08:46:38;103861.09;;;8.57;100.00
71774;BME280;59607;52.130;5.430;2023-02-13T08:49:05;103862.53;;;8.63;100.00
71774;BME280;59607;52.130;5.430;2023-02-13T08:51:33;103866.72;;;8.67;100.00
71774;BME280;59607;52.130;5.430;2023-02-13T08:54:03;103874.91;;;8.79;100.00
71774;BME280;59607;52.130;5.430;2023-02-13T08:56:29;103875.72;;;8.79;100.00
71774;BME280;59607;52.130;5.430;2023-02-13T08:58:56;103868.28;;;8.89;100.00
71774;BME280;59607;52.130;5.430;2023-02-13T09:01:27;103865.72;;;9.05;100.00
71774;BME280;59607;52.130;5.430;2023-02-13T09:03:54;103872.53;;;9.09;100.00
71774;BME280;59607;52.130;5.430;2023-02-13T09:06:29;103868.06;;;9.11;100.00
71774;BME280;59607;52.130;5.430;2023-02-13T09:08:56;103869.34;;;9.20;100.00
71774;BME280;59607;52.130;5.430;2023-02-13T09:11:27;103864.44;;;9.14;100.00
71774;BME280;59607;52.130;5.430;2023-02-13T09:14:03;103866.44;;;9.09;100.00
71774;BME280;59607;52.130;5.430;2023-02-13T09:16:35;103868.81;;;9.13;100.00
71774;BME280;59607;52.130;5.430;2023-02-13T09:19:01;103867.69;;;9.19;100.00
71774;BME280;59607;52.130;5.430;2023-02-13T09:21:37;103865.72;;;9.23;100.00
71774;BME280;59607;52.130;5.430;2023-02-13T09:24:08;103864.50;;;9.30;100.00
71774;BME280;59607;52.130;5.430;2023-02-13T09:26:45;103873.06;;;9.34;100.00
71774;BME280;59607;52.130;5.430;2023-02-13T09:29:11;103860.34;;;9.44;100.00
71774;BME280;59607;52.130;5.430;2023-02-13T09:31:52;103868.13;;;9.45;99.63
71774;BME280;59607;52.130;5.430;2023-02-13T09:34:24;103860.91;;;9.49;99.93
71774;BME280;59607;52.130;5.430;2023-02-13T09:36:56;103871.19;;;9.54;99.59
71774;BME280;59607;52.130;5.430;2023-02-13T09:39:34;103865.03;;;9.71;98.64
71774;BME280;59607;52.130;5.430;2023-02-13T09:42:25;103856.75;;;9.79;97.73
71774;BME280;59607;52.130;5.430;2023-02-13T09:45:03;103861.66;;;9.69;97.72
71774;BME280;59607;52.130;5.430;2023-02-13T09:47:43;103857.88;;;9.74;97.29
71774;BME280;59607;52.130;5.430;2023-02-13T09:50:27;103854.41;;;9.90;96.47
71774;BME280;59607;52.130;5.430;2023-02-13T09:52:58;103852.47;;;9.94;96.38
71774;BME280;59607;52.130;5.430;2023-02-13T09:55:54;103860.75;;;9.86;95.79
71774;BME280;59607;52.130;5.430;2023-02-13T09:58:43;103864.22;;;9.86;95.92
71774;BME280;59607;52.130;5.430;2023-02-13T10:01:25;103862.63;;;10.00;95.71
71774;BME280;59607;52.130;5.430;2023-02-13T10:04:51;103861.28;;;10.25;95.04
71774;BME280;59607;52.130;5.430;2023-02-13T10:07:45;103860.16;;;10.61;92.76
71774;BME280;59607;52.130;5.430;2023-02-13T10:10:49;103858.97;;;10.35;92.22
71774;BME280;59607;52.130;5.430;2023-02-13T10:13:52;103863.13;;;10.39;92.44
71774;BME280;59607;52.130;5.430;2023-02-13T10:16:29;103862.63;;;10.32;91.38
71774;BME280;59607;52.130;5.430;2023-02-13T10:19:18;103849.78;;;10.28;92.06
71774;BME280;59607;52.130;5.430;2023-02-13T10:21:59;103857.38;;;10.48;91.45
71774;BME280;59607;52.130;5.430;2023-02-13T10:27:18;103855.28;;;10.55;90.07
71774;BME280;59607;52.130;5.430;2023-02-13T10:29:58;103860.34;;;10.42;89.96
71774;BME280;59607;52.130;5.430;2023-02-13T10:38:20;103851.38;;;10.46;90.33
71774;BME280;59607;52.130;5.430;2023-02-13T10:44:25;103850.28;;;10.51;90.88
71774;BME280;59607;52.130;5.430;2023-02-13T10:57:56;103835.72;;;10.76;89.43
71774;BME280;59607;52.130;5.430;2023-02-13T11:03:28;103831.59;;;10.71;89.78
71774;BME280;59607;52.130;5.430;2023-02-13T11:06:17;103836.91;;;10.86;87.72
71774;BME280;59607;52.130;5.430;2023-02-13T11:08:47;103831.06;;;10.81;87.43
71774;BME280;59607;52.130;5.430;2023-02-13T11:11:46;103837.56;;;10.59;88.03
71774;BME280;59607;52.130;5.430;2023-02-13T11:14:24;103828.50;;;10.65;89.63
71774;BME280;59607;52.130;5.430;2023-02-13T11:17:02;103821.81;;;10.90;88.04
71774;BME280;59607;52.130;5.430;2023-02-13T11:19:33;103819.00;;;10.93;86.31
71774;BME280;59607;52.130;5.430;2023-02-13T11:22:04;103818.03;;;10.79;86.70
71774;BME280;59607;52.130;5.430;2023-02-13T11:24:31;103808.78;;;10.88;88.07
71774;BME280;59607;52.130;5.430;2023-02-13T11:27:40;103816.78;;;11.01;87.17
71774;BME280;59607;52.130;5.430;2023-02-13T11:30:52;103809.72;;;11.02;87.84
71774;BME280;59607;52.130;5.430;2023-02-13T11:33:28;103808.72;;;11.19;86.96
71774;BME280;59607;52.130;5.430;2023-02-13T11:36:24;103801.66;;;11.19;85.83
71774;BME280;59607;52.130;5.430;2023-02-13T11:39:17;103796.50;;;11.18;85.10
71774;BME280;59607;52.130;5.430;2023-02-13T11:42:14;103792.88;;;11.20;85.18
71774;BME280;59607;52.130;5.430;2023-02-13T11:44:47;103800.00;;;11.33;85.35
71774;BME280;59607;52.130;5.430;2023-02-13T11:47:41;103789.94;;;11.54;83.10
71774;BME280;59607;52.130;5.430;2023-02-13T11:50:52;103788.59;;;11.62;83.28
71774;BME280;59607;52.130;5.430;2023-02-13T11:53:44;103785.03;;;11.77;82.70
71774;BME280;59607;52.130;5.430;2023-02-13T11:56:13;103781.63;;;11.75;81.55
71774;BME280;59607;52.130;5.430;2023-02-13T11:59:12;103775.69;;;11.86;81.54
71774;BME280;59607;52.130;5.430;2023-02-13T12:02:21;103771.69;;;11.80;81.25
71774;BME280;59607;52.130;5.430;2023-02-13T12:05:19;103773.09;;;11.71;82.03
71774;BME280;59607;52.130;5.430;2023-02-13T12:07:47;103765.84;;;11.75;81.74
71774;BME280;59607;52.130;5.430;2023-02-13T12:10:24;103754.31;;;11.63;80.22
71774;BME280;59607;52.130;5.430;2023-02-13T12:13:17;103758.25;;;11.70;80.31
71774;BME280;59607;52.130;5.430;2023-02-13T12:15:58;103751.59;;;11.65;79.43
71774;BME280;59607;52.130;5.430;2023-02-13T12:18:39;103755.84;;;11.67;80.86
71774;BME280;59607;52.130;5.430;2023-02-13T12:24:56;103760.38;;;11.36;81.59
71774;BME280;59607;52.130;5.430;2023-02-13T12:33:39;103751.03;;;11.17;83.71
71774;BME280;59607;52.130;5.430;2023-02-13T12:36:18;103754.47;;;11.32;83.88
71774;BME280;59607;52.130;5.430;2023-02-13T12:42:11;103750.53;;;11.40;82.53
71774;BME280;59607;52.130;5.430;2023-02-13T12:44:50;103755.28;;;11.62;81.39
71774;BME280;59607;52.130;5.430;2023-02-13T12:47:37;103743.00;;;11.48;81.64
71774;BME280;59607;52.130;5.430;2023-02-13T12:50:20;103749.66;;;11.54;81.23
71774;BME280;59607;52.130;5.430;2023-02-13T13:01:10;103736.03;;;11.62;80.52
71774;BME280;59607;52.130;5.430;2023-02-13T13:03:50;103731.53;;;11.64;80.28
71774;BME280;59607;52.130;5.430;2023-02-13T13:09:34;103726.72;;;11.70;80.72
71774;BME280;59607;52.130;5.430;2023-02-13T13:26:37;103706.22;;;11.76;80.12
71774;BME280;59607;52.130;5.430;2023-02-13T13:29:41;103697.78;;;11.70;79.83
71774;BME280;59607;52.130;5.430;2023-02-13T13:32:17;103697.88;;;11.69;79.82
71774;BME280;59607;52.130;5.430;2023-02-13T13:34:46;103697.59;;;11.73;79.96
71774;BME280;59607;52.130;5.430;2023-02-13T13:37:36;103696.44;;;11.78;80.07
71774;BME280;59607;52.130;5.430;2023-02-13T13:49:15;103682.13;;;11.69;79.45
71774;BME280;59607;52.130;5.430;2023-02-13T13:52:29;103678.84;;;11.65;80.35
71774;BME280;59607;52.130;5.430;2023-02-13T13:54:58;103681.38;;;11.67;79.86
71774;BME280;59607;52.130;5.430;2023-02-13T14:02:51;103679.50;;;11.69;80.15
71774;BME280;59607;52.130;5.430;2023-02-13T14:05:59;103678.53;;;11.70;80.58
71774;BME280;59607;52.130;5.430;2023-02-13T14:11:06;103672.50;;;11.95;79.06
71774;BME280;59607;52.130;5.430;2023-02-13T14:13:53;103672.97;;;11.75;79.14
71774;BME280;59607;52.130;5.430;2023-02-13T14:16:42;103666.44;;;11.67;80.20
71774;BME280;59607;52.130;5.430;2023-02-13T14:21:53;103665.09;;;11.75;80.49
71774;BME280;59607;52.130;5.430;2023-02-13T14:24:26;103662.34;;;11.76;80.67
71774;BME280;59607;52.130;5.430;2023-02-13T14:26:55;103655.31;;;11.77;80.20
71774;BME280;59607;52.130;5.430;2023-02-13T14:29:33;103653.53;;;11.77;80.57
71774;BME280;59607;52.130;5.430;2023-02-13T14:32:35;103656.69;;;11.69;80.93
71774;BME280;59607;52.130;5.430;2023-02-13T14:35:25;103658.75;;;11.64;80.83
71774;BME280;59607;52.130;5.430;2023-02-13T14:38:05;103652.00;;;11.60;80.45
71774;BME280;59607;52.130;5.430;2023-02-13T14:40:46;103661.59;;;11.61;80.38
71774;BME280;59607;52.130;5.430;2023-02-13T14:43:45;103656.53;;;11.58;80.45
71774;BME280;59607;52.130;5.430;2023-02-13T14:48:57;103655.69;;;11.57;80.83
71774;BME280;59607;52.130;5.430;2023-02-13T14:51:44;103650.41;;;11.57;80.87
71774;BME280;59607;52.130;5.430;2023-02-13T14:54:17;103651.28;;;11.58;81.33
71774;BME280;59607;52.130;5.430;2023-02-13T14:56:49;103653.34;;;11.53;80.72
71774;BME280;59607;52.130;5.430;2023-02-13T14:59:28;103649.13;;;11.50;81.36
71774;BME280;59607;52.130;5.430;2023-02-13T15:02:00;103643.66;;;11.53;81.75
71774;BME280;59607;52.130;5.430;2023-02-13T15:04:36;103648.19;;;11.51;81.49
71774;BME280;59607;52.130;5.430;2023-02-13T15:07:35;103637.88;;;11.48;81.93
71774;BME280;59607;52.130;5.430;2023-02-13T15:12:58;103648.69;;;11.43;82.25
71774;BME280;59607;52.130;5.430;2023-02-13T15:15:55;103653.94;;;11.43;82.27
71774;BME280;59607;52.130;5.430;2023-02-13T15:18:30;103646.06;;;11.43;82.29
71774;BME280;59607;52.130;5.430;2023-02-13T15:21:02;103650.66;;;11.40;83.25
71774;BME280;59607;52.130;5.430;2023-02-13T15:23:30;103647.28;;;11.38;83.68
71774;BME280;59607;52.130;5.430;2023-02-13T15:26:05;103643.81;;;11.37;83.78
71774;BME280;59607;52.130;5.430;2023-02-13T15:28:34;103638.66;;;11.35;84.44
71774;BME280;59607;52.130;5.430;2023-02-13T15:31:05;103641.38;;;11.34;84.38
71774;BME280;59607;52.130;5.430;2023-02-13T15:33:45;103632.00;;;11.30;83.95
71774;BME280;59607;52.130;5.430;2023-02-13T15:36:33;103634.84;;;11.27;84.44
71774;BME280;59607;52.130;5.430;2023-02-13T15:39:02;103641.22;;;11.22;85.00
71774;BME280;59607;52.130;5.430;2023-02-13T15:41:37;103634.47;;;11.18;85.35
71774;BME280;59607;52.130;5.430;2023-02-13T15:44:28;103628.56;;;11.15;85.68
71774;BME280;59607;52.130;5.430;2023-02-13T15:47:18;103631.38;;;11.11;86.22
71774;BME280;59607;52.130;5.430;2023-02-13T15:49:53;103635.97;;;11.08;86.58
71774;BME280;59607;52.130;5.430;2023-02-13T15:52:28;103625.03;;;11.01;87.16
71774;BME280;59607;52.130;5.430;2023-02-13T15:54:58;103629.66;;;10.97;87.31
71774;BME280;59607;52.130;5.430;2023-02-13T15:57:26;103622.78;;;10.95;87.43